sensor_id;sensor_type;location;lat;lon;timestamp;temperature;humidity
33837;DHT22;20140;49.356;8.812;2023-04-25T00:02:04;8.40;99.90
33837;DHT22;20140;49.356;8.812;2023-04-25T00:04:30;8.40;99.90
33837;DHT22;20140;49.356;8.812;2023-04-25T00:06:59;8.40;99.90
33837;DHT22;20140;49.356;8.812;2023-04-25T00:09:27;8.40;99.90
33837;DHT22;20140;49.356;8.812;2023-04-25T00:11:52;8.40;99.90
33837;DHT22;20140;49.356;8.812;2023-04-25T00:14:18;8.40;99.90
33837;DHT22;20140;49.356;8.812;2023-04-25T00:16:43;8.40;99.90
33837;DHT22;20140;49.356;8.812;2023-04-25T00:19:09;8.30;99.90
33837;DHT22;20140;49.356;8.812;2023-04-25T00:21:35;8.30;99.90
33837;DHT22;20140;49.356;8.812;2023-04-25T00:24:01;8.30;99.90
33837;DHT22;20140;49.356;8.812;2023-04-25T00:26:27;8.20;99.90
33837;DHT22;20140;49.356;8.812;2023-04-25T00:28:52;8.20;99.90
33837;DHT22;20140;49.356;8.812;2023-04-25T00:31:18;8.20;99.90
33837;DHT22;20140;49.356;8.812;2023-04-25T00:33:43;8.20;99.90
33837;DHT22;20140;49.356;8.812;2023-04-25T00:36:09;8.20;99.90
33837;DHT22;20140;49.356;8.812;2023-04-25T00:38:35;8.10;99.90
33837;DHT22;20140;49.356;8.812;2023-04-25T00:41:01;8.10;99.90
33837;DHT22;20140;49.356;8.812;2023-04-25T00:43:28;8.00;99.90
33837;DHT22;20140;49.356;8.812;2023-04-25T00:45:56;8.00;99.90
33837;DHT22;20140;49.356;8.812;2023-04-25T00:48:23;7.90;99.90
33837;DHT22;20140;49.356;8.812;2023-04-25T00:50:52;7.90;99.90
33837;DHT22;20140;49.356;8.812;2023-04-25T00:53:20;7.90;99.90
33837;DHT22;20140;49.356;8.812;2023-04-25T00:55:45;7.90;99.90
33837;DHT22;20140;49.356;8.812;2023-04-25T00:58:11;7.90;99.90
33837;DHT22;20140;49.356;8.812;2023-04-25T01:00:37;7.80;99.90
33837;DHT22;20140;49.356;8.812;2023-04-25T01:03:03;7.80;99.90
33837;DHT22;20140;49.356;8.812;2023-04-25T01:05:29;7.80;99.90
33837;DHT22;20140;49.356;8.812;2023-04-25T01:07:55;7.80;99.90
33837;DHT22;20140;49.356;8.812;2023-04-25T01:10:21;7.80;99.90
33837;DHT22;20140;49.356;8.812;2023-04-25T01:12:46;7.80;99.90
33837;DHT22;20140;49.356;8.812;2023-04-25T01:15:12;7.80;99.90
33837;DHT22;20140;49.356;8.812;2023-04-25T01:17:38;7.80;99.90
33837;DHT22;20140;49.356;8.812;2023-04-25T01:20:05;7.80;99.90
33837;DHT22;20140;49.356;8.812;2023-04-25T01:22:33;7.80;99.90
33837;DHT22;20140;49.356;8.812;2023-04-25T01:24:59;7.80;99.90
33837;DHT22;20140;49.356;8.812;2023-04-25T01:27:25;7.80;99.90
33837;DHT22;20140;49.356;8.812;2023-04-25T01:29:51;7.80;99.90
33837;DHT22;20140;49.356;8.812;2023-04-25T01:32:17;7.80;99.90
33837;DHT22;20140;49.356;8.812;2023-04-25T01:34:43;7.90;99.90
33837;DHT22;20140;49.356;8.812;2023-04-25T01:37:09;7.90;99.90
33837;DHT22;20140;49.356;8.812;2023-04-25T01:39:35;7.90;99.90
33837;DHT22;20140;49.356;8.812;2023-04-25T01:42:00;7.90;99.90
33837;DHT22;20140;49.356;8.812;2023-04-25T01:44:27;7.90;99.90
33837;DHT22;20140;49.356;8.812;2023-04-25T01:46:52;7.90;99.90
33837;DHT22;20140;49.356;8.812;2023-04-25T01:49:18;7.90;99.90
33837;DHT22;20140;49.356;8.812;2023-04-25T01:51:44;7.90;99.90
33837;DHT22;20140;49.356;8.812;2023-04-25T01:54:10;7.90;99.90
33837;DHT22;20140;49.356;8.812;2023-04-25T01:56:37;7.90;99.90
33837;DHT22;20140;49.356;8.812;2023-04-25T01:59:04;7.90;99.90
33837;DHT22;20140;49.356;8.812;2023-04-25T02:01:29;7.90;99.90
33837;DHT22;20140;49.356;8.812;2023-04-25T02:03:55;7.80;99.90
33837;DHT22;20140;49.356;8.812;2023-04-25T02:06:20;7.90;99.90
33837;DHT22;20140;49.356;8.812;2023-04-25T02:08:46;7.90;99.90
33837;DHT22;20140;49.356;8.812;2023-04-25T02:11:12;7.90;99.90
33837;DHT22;20140;49.356;8.812;2023-04-25T02:13:37;7.90;99.90
33837;DHT22;20140;49.356;8.812;2023-04-25T02:16:03;7.90;99.90
33837;DHT22;20140;49.356;8.812;2023-04-25T02:18:28;7.90;99.90
33837;DHT22;20140;49.356;8.812;2023-04-25T02:20:54;7.90;99.90
33837;DHT22;20140;49.356;8.812;2023-04-25T02:23:19;7.90;99.90
33837;DHT22;20140;49.356;8.812;2023-04-25T02:25:45;7.90;99.90
33837;DHT22;20140;49.356;8.812;2023-04-25T02:28:11;7.90;99.90
33837;DHT22;20140;49.356;8.812;2023-04-25T02:30:36;7.80;99.90
33837;DHT22;20140;49.356;8.812;2023-04-25T02:33:02;7.90;99.90
33837;DHT22;20140;49.356;8.812;2023-04-25T02:35:27;7.80;99.90
33837;DHT22;20140;49.356;8.812;2023-04-25T02:37:53;7.90;99.90
33837;DHT22;20140;49.356;8.812;2023-04-25T02:40:18;7.90;99.90
33837;DHT22;20140;49.356;8.812;2023-04-25T02:42:44;7.80;99.90
33837;DHT22;20140;49.356;8.812;2023-04-25T02:45:11;7.80;99.90
33837;DHT22;20140;49.356;8.812;2023-04-25T02:47:36;7.80;99.90
33837;DHT22;20140;49.356;8.812;2023-04-25T02:50:02;7.80;99.90
33837;DHT22;20140;49.356;8.812;2023-04-25T02:52:28;7.90;99.90
33837;DHT22;20140;49.356;8.812;2023-04-25T02:54:53;7.80;99.90
33837;DHT22;20140;49.356;8.812;2023-04-25T02:57:19;7.80;99.90
33837;DHT22;20140;49.356;8.812;2023-04-25T02:59:44;7.80;99.90
33837;DHT22;20140;49.356;8.812;2023-04-25T03:02:10;7.80;99.90
33837;DHT22;20140;49.356;8.812;2023-04-25T03:04:35;7.90;99.90
33837;DHT22;20140;49.356;8.812;2023-04-25T03:07:01;7.80;99.90
33837;DHT22;20140;49.356;8.812;2023-04-25T03:09:27;7.80;99.90
33837;DHT22;20140;49.356;8.812;2023-04-25T03:11:52;7.80;99.90
33837;DHT22;20140;49.356;8.812;2023-04-25T03:14:18;7.80;99.90
33837;DHT22;20140;49.356;8.812;2023-04-25T03:16:43;7.80;99.90
33837;DHT22;20140;49.356;8.812;2023-04-25T03:19:09;7.90;99.90
33837;DHT22;20140;49.356;8.812;2023-04-25T03:21:35;7.80;99.90
33837;DHT22;20140;49.356;8.812;2023-04-25T03:24:02;7.80;99.90
33837;DHT22;20140;49.356;8.812;2023-04-25T03:26:28;7.80;99.90
33837;DHT22;20140;49.356;8.812;2023-04-25T03:28:54;7.80;99.90
33837;DHT22;20140;49.356;8.812;2023-04-25T03:31:20;7.80;99.90
33837;DHT22;20140;49.356;8.812;2023-04-25T03:33:45;7.80;99.90
33837;DHT22;20140;49.356;8.812;2023-04-25T03:36:11;7.80;99.90
33837;DHT22;20140;49.356;8.812;2023-04-25T03:38:36;7.80;99.90
33837;DHT22;20140;49.356;8.812;2023-04-25T03:41:02;7.80;99.90
33837;DHT22;20140;49.356;8.812;2023-04-25T03:43:28;7.80;99.90
33837;DHT22;20140;49.356;8.812;2023-04-25T03:45:53;7.80;99.90
33837;DHT22;20140;49.356;8.812;2023-04-25T03:48:19;7.80;99.90
33837;DHT22;20140;49.356;8.812;2023-04-25T03:50:47;7.80;99.90
33837;DHT22;20140;49.356;8.812;2023-04-25T03:53:12;7.70;99.90
33837;DHT22;20140;49.356;8.812;2023-04-25T03:55:38;7.70;99.90
33837;DHT22;20140;49.356;8.812;2023-04-25T03:58:03;7.70;99.90
33837;DHT22;20140;49.356;8.812;2023-04-25T04:00:29;7.80;99.90
33837;DHT22;20140;49.356;8.812;2023-04-25T04:02:54;7.80;99.90
33837;DHT22;20140;49.356;8.812;2023-04-25T04:05:20;7.80;99.90
33837;DHT22;20140;49.356;8.812;2023-04-25T04:07:46;7.90;99.90
33837;DHT22;20140;49.356;8.812;2023-04-25T04:10:12;7.80;99.90
33837;DHT22;20140;49.356;8.812;2023-04-25T04:12:38;7.90;99.90
33837;DHT22;20140;49.356;8.812;2023-04-25T04:15:05;7.90;99.90
33837;DHT22;20140;49.356;8.812;2023-04-25T04:17:31;7.80;99.90
33837;DHT22;20140;49.356;8.812;2023-04-25T04:19:56;7.80;99.90
33837;DHT22;20140;49.356;8.812;2023-04-25T04:22:22;7.80;99.90
33837;DHT22;20140;49.356;8.812;2023-04-25T04:24:48;7.80;99.90
33837;DHT22;20140;49.356;8.812;2023-04-25T04:27:18;7.80;99.90
33837;DHT22;20140;49.356;8.812;2023-04-25T04:29:46;7.80;99.90
33837;DHT22;20140;49.356;8.812;2023-04-25T04:32:13;7.80;99.90
33837;DHT22;20140;49.356;8.812;2023-04-25T04:34:38;7.80;99.90
33837;DHT22;20140;49.356;8.812;2023-04-25T04:37:05;7.80;99.90
33837;DHT22;20140;49.356;8.812;2023-04-25T04:39:35;7.80;99.90
33837;DHT22;20140;49.356;8.812;2023-04-25T04:42:01;7.80;99.90
33837;DHT22;20140;49.356;8.812;2023-04-25T04:44:30;7.80;99.90
33837;DHT22;20140;49.356;8.812;2023-04-25T04:46:58;7.80;99.90
33837;DHT22;20140;49.356;8.812;2023-04-25T04:49:23;7.80;99.90
33837;DHT22;20140;49.356;8.812;2023-04-25T04:51:49;7.80;99.90
33837;DHT22;20140;49.356;8.812;2023-04-25T04:54:15;7.90;99.90
33837;DHT22;20140;49.356;8.812;2023-04-25T04:56:40;7.90;99.90
33837;DHT22;20140;49.356;8.812;2023-04-25T04:59:07;7.90;99.90
33837;DHT22;20140;49.356;8.812;2023-04-25T05:01:32;7.80;99.90
33837;DHT22;20140;49.356;8.812;2023-04-25T05:04:00;7.80;99.90
33837;DHT22;20140;49.356;8.812;2023-04-25T05:06:26;7.70;99.90
33837;DHT22;20140;49.356;8.812;2023-04-25T05:08:52;7.70;99.90
33837;DHT22;20140;49.356;8.812;2023-04-25T05:11:19;7.80;99.90
33837;DHT22;20140;49.356;8.812;2023-04-25T05:13:44;7.80;99.90
33837;DHT22;20140;49.356;8.812;2023-04-25T05:16:11;7.90;99.90
33837;DHT22;20140;49.356;8.812;2023-04-25T05:18:37;8.00;99.90
33837;DHT22;20140;49.356;8.812;2023-04-25T05:21:02;7.90;99.90
33837;DHT22;20140;49.356;8.812;2023-04-25T05:23:28;7.90;99.90
33837;DHT22;20140;49.356;8.812;2023-04-25T05:25:55;7.90;99.90
33837;DHT22;20140;49.356;8.812;2023-04-25T05:28:21;7.80;99.90
33837;DHT22;20140;49.356;8.812;2023-04-25T05:30:46;7.80;99.90
33837;DHT22;20140;49.356;8.812;2023-04-25T05:33:12;7.90;99.90
33837;DHT22;20140;49.356;8.812;2023-04-25T05:35:37;7.90;99.90
33837;DHT22;20140;49.356;8.812;2023-04-25T05:38:03;7.90;99.90
33837;DHT22;20140;49.356;8.812;2023-04-25T05:40:28;7.90;99.90
33837;DHT22;20140;49.356;8.812;2023-04-25T05:42:54;7.90;99.90
33837;DHT22;20140;49.356;8.812;2023-04-25T05:45:19;7.90;99.90
33837;DHT22;20140;49.356;8.812;2023-04-25T05:47:45;8.00;99.90
33837;DHT22;20140;49.356;8.812;2023-04-25T05:50:10;8.00;99.90
33837;DHT22;20140;49.356;8.812;2023-04-25T05:52:36;8.10;99.90
33837;DHT22;20140;49.356;8.812;2023-04-25T05:55:01;8.20;99.90
33837;DHT22;20140;49.356;8.812;2023-04-25T05:57:27;8.20;99.90
33837;DHT22;20140;49.356;8.812;2023-04-25T05:59:53;8.20;99.90
33837;DHT22;20140;49.356;8.812;2023-04-25T06:02:20;8.30;99.90
33837;DHT22;20140;49.356;8.812;2023-04-25T06:04:52;8.30;99.90
33837;DHT22;20140;49.356;8.812;2023-04-25T06:07:20;8.30;99.90
33837;DHT22;20140;49.356;8.812;2023-04-25T06:09:46;8.40;99.90
33837;DHT22;20140;49.356;8.812;2023-04-25T06:12:12;8.50;99.90
33837;DHT22;20140;49.356;8.812;2023-04-25T06:14:37;8.50;99.90
33837;DHT22;20140;49.356;8.812;2023-04-25T06:17:03;8.50;99.90
33837;DHT22;20140;49.356;8.812;2023-04-25T06:19:33;8.60;99.90
33837;DHT22;20140;49.356;8.812;2023-04-25T06:21:59;8.60;99.90
33837;DHT22;20140;49.356;8.812;2023-04-25T06:24:25;8.60;99.90
33837;DHT22;20140;49.356;8.812;2023-04-25T06:26:51;8.50;99.90
33837;DHT22;20140;49.356;8.812;2023-04-25T06:29:16;8.50;99.90
33837;DHT22;20140;49.356;8.812;2023-04-25T06:31:42;8.50;99.90
33837;DHT22;20140;49.356;8.812;2023-04-25T06:34:07;8.60;99.90
33837;DHT22;20140;49.356;8.812;2023-04-25T06:36:33;8.60;99.90
33837;DHT22;20140;49.356;8.812;2023-04-25T06:38:59;8.60;99.90
33837;DHT22;20140;49.356;8.812;2023-04-25T06:41:24;8.70;99.90
33837;DHT22;20140;49.356;8.812;2023-04-25T06:43:50;8.70;99.90
33837;DHT22;20140;49.356;8.812;2023-04-25T06:46:15;8.90;99.90
33837;DHT22;20140;49.356;8.812;2023-04-25T06:48:41;9.00;99.90
33837;DHT22;20140;49.356;8.812;2023-04-25T06:51:07;8.60;99.90
33837;DHT22;20140;49.356;8.812;2023-04-25T06:53:32;8.70;99.90
33837;DHT22;20140;49.356;8.812;2023-04-25T06:55:58;8.70;99.90
33837;DHT22;20140;49.356;8.812;2023-04-25T06:58:23;8.90;99.90
33837;DHT22;20140;49.356;8.812;2023-04-25T07:00:49;9.00;99.90
33837;DHT22;20140;49.356;8.812;2023-04-25T07:03:14;9.10;99.90
33837;DHT22;20140;49.356;8.812;2023-04-25T07:05:40;9.10;99.90
33837;DHT22;20140;49.356;8.812;2023-04-25T07:08:05;8.90;99.90
33837;DHT22;20140;49.356;8.812;2023-04-25T07:10:31;8.80;99.90
33837;DHT22;20140;49.356;8.812;2023-04-25T07:12:56;8.90;99.90
33837;DHT22;20140;49.356;8.812;2023-04-25T07:15:22;9.10;99.90
33837;DHT22;20140;49.356;8.812;2023-04-25T07:17:47;9.10;99.90
33837;DHT22;20140;49.356;8.812;2023-04-25T07:20:13;9.10;99.90
33837;DHT22;20140;49.356;8.812;2023-04-25T07:22:38;9.00;99.90
33837;DHT22;20140;49.356;8.812;2023-04-25T07:25:04;8.90;99.90
33837;DHT22;20140;49.356;8.812;2023-04-25T07:27:30;8.90;99.90
33837;DHT22;20140;49.356;8.812;2023-04-25T07:29:56;8.80;99.90
33837;DHT22;20140;49.356;8.812;2023-04-25T07:32:22;8.80;99.90
33837;DHT22;20140;49.356;8.812;2023-04-25T07:34:48;8.80;99.90
33837;DHT22;20140;49.356;8.812;2023-04-25T07:37:13;8.90;99.90
33837;DHT22;20140;49.356;8.812;2023-04-25T07:39:39;9.00;99.90
33837;DHT22;20140;49.356;8.812;2023-04-25T07:42:05;9.10;99.90
33837;DHT22;20140;49.356;8.812;2023-04-25T07:44:33;9.10;99.90
33837;DHT22;20140;49.356;8.812;2023-04-25T07:47:06;9.10;99.90
33837;DHT22;20140;49.356;8.812;2023-04-25T07:49:36;9.00;99.90
33837;DHT22;20140;49.356;8.812;2023-04-25T07:52:03;8.80;99.90
33837;DHT22;20140;49.356;8.812;2023-04-25T07:54:29;8.90;99.90
33837;DHT22;20140;49.356;8.812;2023-04-25T07:56:55;9.00;99.90
33837;DHT22;20140;49.356;8.812;2023-04-25T07:59:21;8.90;99.90
33837;DHT22;20140;49.356;8.812;2023-04-25T08:01:47;8.80;99.90
33837;DHT22;20140;49.356;8.812;2023-04-25T08:04:12;8.80;99.90
33837;DHT22;20140;49.356;8.812;2023-04-25T08:06:38;8.80;99.90
33837;DHT22;20140;49.356;8.812;2023-04-25T08:09:03;8.80;99.90
33837;DHT22;20140;49.356;8.812;2023-04-25T08:11:29;8.90;99.90
33837;DHT22;20140;49.356;8.812;2023-04-25T08:13:55;9.00;99.90
33837;DHT22;20140;49.356;8.812;2023-04-25T08:16:20;9.00;99.90
33837;DHT22;20140;49.356;8.812;2023-04-25T08:18:46;9.30;99.90
33837;DHT22;20140;49.356;8.812;2023-04-25T08:21:12;9.30;99.90
33837;DHT22;20140;49.356;8.812;2023-04-25T08:23:38;9.30;99.90
33837;DHT22;20140;49.356;8.812;2023-04-25T08:26:04;9.20;99.90
33837;DHT22;20140;49.356;8.812;2023-04-25T08:28:30;9.10;99.90
33837;DHT22;20140;49.356;8.812;2023-04-25T08:30:56;9.10;99.90
33837;DHT22;20140;49.356;8.812;2023-04-25T08:33:22;9.00;99.90
33837;DHT22;20140;49.356;8.812;2023-04-25T08:35:47;9.00;99.90
33837;DHT22;20140;49.356;8.812;2023-04-25T08:38:13;9.10;99.90
33837;DHT22;20140;49.356;8.812;2023-04-25T08:40:39;9.10;99.90
33837;DHT22;20140;49.356;8.812;2023-04-25T08:43:06;9.30;99.90
33837;DHT22;20140;49.356;8.812;2023-04-25T08:45:39;9.40;99.90
33837;DHT22;20140;49.356;8.812;2023-04-25T08:48:07;9.90;99.90
33837;DHT22;20140;49.356;8.812;2023-04-25T08:50:36;9.70;99.90
33837;DHT22;20140;49.356;8.812;2023-04-25T08:53:04;9.60;99.90
33837;DHT22;20140;49.356;8.812;2023-04-25T08:55:33;9.60;99.90
33837;DHT22;20140;49.356;8.812;2023-04-25T08:58:00;9.80;99.90
33837;DHT22;20140;49.356;8.812;2023-04-25T09:00:26;9.70;99.90
33837;DHT22;20140;49.356;8.812;2023-04-25T09:02:52;9.70;99.90
33837;DHT22;20140;49.356;8.812;2023-04-25T09:05:19;9.60;99.90
33837;DHT22;20140;49.356;8.812;2023-04-25T09:07:44;9.60;99.90
33837;DHT22;20140;49.356;8.812;2023-04-25T09:10:10;9.60;99.90
33837;DHT22;20140;49.356;8.812;2023-04-25T09:12:36;9.60;99.90
33837;DHT22;20140;49.356;8.812;2023-04-25T09:15:07;9.60;99.90
33837;DHT22;20140;49.356;8.812;2023-04-25T09:17:33;9.50;99.90
33837;DHT22;20140;49.356;8.812;2023-04-25T09:20:07;9.50;99.90
33837;DHT22;20140;49.356;8.812;2023-04-25T09:22:34;9.70;99.90
33837;DHT22;20140;49.356;8.812;2023-04-25T09:25:11;9.60;99.90
33837;DHT22;20140;49.356;8.812;2023-04-25T09:27:57;9.80;99.90
33837;DHT22;20140;49.356;8.812;2023-04-25T09:30:30;10.10;99.90
33837;DHT22;20140;49.356;8.812;2023-04-25T09:33:06;10.00;99.90
33837;DHT22;20140;49.356;8.812;2023-04-25T09:35:40;10.00;99.90
33837;DHT22;20140;49.356;8.812;2023-04-25T09:38:14;10.00;99.90
33837;DHT22;20140;49.356;8.812;2023-04-25T09:40:45;9.90;99.90
33837;DHT22;20140;49.356;8.812;2023-04-25T09:43:24;10.20;99.90
33837;DHT22;20140;49.356;8.812;2023-04-25T09:45:51;10.10;99.90
33837;DHT22;20140;49.356;8.812;2023-04-25T09:48:19;10.20;99.90
33837;DHT22;20140;49.356;8.812;2023-04-25T09:51:04;10.10;99.90
33837;DHT22;20140;49.356;8.812;2023-04-25T09:53:30;10.30;99.90
33837;DHT22;20140;49.356;8.812;2023-04-25T09:55:58;10.50;99.90
33837;DHT22;20140;49.356;8.812;2023-04-25T09:58:24;10.50;99.90
33837;DHT22;20140;49.356;8.812;2023-04-25T10:00:51;10.50;99.90
33837;DHT22;20140;49.356;8.812;2023-04-25T10:03:17;10.40;99.90
33837;DHT22;20140;49.356;8.812;2023-04-25T10:05:46;10.50;99.90
33837;DHT22;20140;49.356;8.812;2023-04-25T10:08:14;10.70;99.90
33837;DHT22;20140;49.356;8.812;2023-04-25T10:10:41;10.40;99.90
33837;DHT22;20140;49.356;8.812;2023-04-25T10:13:07;10.70;99.90
33837;DHT22;20140;49.356;8.812;2023-04-25T10:15:35;11.00;99.90
33837;DHT22;20140;49.356;8.812;2023-04-25T10:18:02;10.90;99.90
33837;DHT22;20140;49.356;8.812;2023-04-25T10:20:28;11.00;99.90
33837;DHT22;20140;49.356;8.812;2023-04-25T10:22:57;10.80;99.90
33837;DHT22;20140;49.356;8.812;2023-04-25T10:25:23;10.90;99.90
33837;DHT22;20140;49.356;8.812;2023-04-25T10:27:53;11.00;99.90
33837;DHT22;20140;49.356;8.812;2023-04-25T10:30:19;11.00;99.90
33837;DHT22;20140;49.356;8.812;2023-04-25T10:32:45;11.10;99.90
33837;DHT22;20140;49.356;8.812;2023-04-25T10:35:16;10.90;99.90
33837;DHT22;20140;49.356;8.812;2023-04-25T10:40:30;11.50;99.90
33837;DHT22;20140;49.356;8.812;2023-04-25T10:42:55;11.50;99.90
33837;DHT22;20140;49.356;8.812;2023-04-25T10:45:51;11.50;99.90
33837;DHT22;20140;49.356;8.812;2023-04-25T10:48:26;11.40;99.90
33837;DHT22;20140;49.356;8.812;2023-04-25T10:51:12;11.40;99.90
33837;DHT22;20140;49.356;8.812;2023-04-25T10:53:40;11.20;99.90
33837;DHT22;20140;49.356;8.812;2023-04-25T10:56:19;11.30;99.90
33837;DHT22;20140;49.356;8.812;2023-04-25T10:58:46;10.90;99.90
33837;DHT22;20140;49.356;8.812;2023-04-25T11:01:19;11.00;99.90
33837;DHT22;20140;49.356;8.812;2023-04-25T11:03:45;11.20;99.90
33837;DHT22;20140;49.356;8.812;2023-04-25T11:08:51;11.20;99.90
33837;DHT22;20140;49.356;8.812;2023-04-25T11:11:18;11.10;99.90
33837;DHT22;20140;49.356;8.812;2023-04-25T11:13:44;11.20;99.90
33837;DHT22;20140;49.356;8.812;2023-04-25T11:16:10;11.00;99.90
33837;DHT22;20140;49.356;8.812;2023-04-25T11:18:35;11.20;99.90
33837;DHT22;20140;49.356;8.812;2023-04-25T11:21:02;11.40;99.90
33837;DHT22;20140;49.356;8.812;2023-04-25T11:23:30;11.50;99.90
33837;DHT22;20140;49.356;8.812;2023-04-25T11:25:55;11.60;99.90
33837;DHT22;20140;49.356;8.812;2023-04-25T11:28:22;11.20;99.90
33837;DHT22;20140;49.356;8.812;2023-04-25T11:30:49;11.00;99.90
33837;DHT22;20140;49.356;8.812;2023-04-25T11:33:18;11.20;99.90
33837;DHT22;20140;49.356;8.812;2023-04-25T11:35:47;11.00;99.90
33837;DHT22;20140;49.356;8.812;2023-04-25T11:38:13;10.80;99.90
33837;DHT22;20140;49.356;8.812;2023-04-25T11:40:39;10.70;99.90
33837;DHT22;20140;49.356;8.812;2023-04-25T11:43:04;10.60;99.90
33837;DHT22;20140;49.356;8.812;2023-04-25T11:45:30;10.90;99.90
33837;DHT22;20140;49.356;8.812;2023-04-25T11:47:58;10.70;99.90
33837;DHT22;20140;49.356;8.812;2023-04-25T11:50:24;10.80;99.90
33837;DHT22;20140;49.356;8.812;2023-04-25T11:52:49;11.00;99.90
33837;DHT22;20140;49.356;8.812;2023-04-25T11:55:17;11.20;99.90
33837;DHT22;20140;49.356;8.812;2023-04-25T11:57:44;11.00;99.90
33837;DHT22;20140;49.356;8.812;2023-04-25T12:00:15;11.20;99.90
33837;DHT22;20140;49.356;8.812;2023-04-25T12:02:52;11.10;99.90
33837;DHT22;20140;49.356;8.812;2023-04-25T12:05:19;11.00;99.90
33837;DHT22;20140;49.356;8.812;2023-04-25T12:07:45;11.00;99.90
33837;DHT22;20140;49.356;8.812;2023-04-25T12:10:13;11.00;99.90
33837;DHT22;20140;49.356;8.812;2023-04-25T12:12:43;11.10;99.90
33837;DHT22;20140;49.356;8.812;2023-04-25T12:15:17;11.30;99.90
33837;DHT22;20140;49.356;8.812;2023-04-25T12:17:50;11.50;99.90
33837;DHT22;20140;49.356;8.812;2023-04-25T12:20:21;11.40;99.90
33837;DHT22;20140;49.356;8.812;2023-04-25T12:22:49;11.30;99.90
33837;DHT22;20140;49.356;8.812;2023-04-25T12:25:38;11.10;99.90
33837;DHT22;20140;49.356;8.812;2023-04-25T12:28:21;11.60;99.90
33837;DHT22;20140;49.356;8.812;2023-04-25T12:30:56;11.60;99.90
33837;DHT22;20140;49.356;8.812;2023-04-25T12:33:23;11.50;99.90
33837;DHT22;20140;49.356;8.812;2023-04-25T12:35:49;12.00;99.90
33837;DHT22;20140;49.356;8.812;2023-04-25T12:38:28;11.30;99.90
33837;DHT22;20140;49.356;8.812;2023-04-25T12:40:57;11.90;99.90
33837;DHT22;20140;49.356;8.812;2023-04-25T12:43:23;12.20;99.90
33837;DHT22;20140;49.356;8.812;2023-04-25T12:45:50;12.30;99.90
33837;DHT22;20140;49.356;8.812;2023-04-25T12:48:16;12.00;99.90
33837;DHT22;20140;49.356;8.812;2023-04-25T12:50:42;12.00;99.90
33837;DHT22;20140;49.356;8.812;2023-04-25T12:53:07;11.60;99.90
33837;DHT22;20140;49.356;8.812;2023-04-25T12:55:33;11.70;99.90
33837;DHT22;20140;49.356;8.812;2023-04-25T12:57:59;11.30;99.90
33837;DHT22;20140;49.356;8.812;2023-04-25T13:00:24;11.20;99.90
33837;DHT22;20140;49.356;8.812;2023-04-25T13:02:50;11.10;99.90
33837;DHT22;20140;49.356;8.812;2023-04-25T13:05:15;11.10;99.90
33837;DHT22;20140;49.356;8.812;2023-04-25T13:07:41;10.80;99.90
33837;DHT22;20140;49.356;8.812;2023-04-25T13:10:07;10.90;99.90
33837;DHT22;20140;49.356;8.812;2023-04-25T13:12:33;11.00;99.90
33837;DHT22;20140;49.356;8.812;2023-04-25T13:14:58;11.10;99.90
33837;DHT22;20140;49.356;8.812;2023-04-25T13:17:24;11.10;99.90
33837;DHT22;20140;49.356;8.812;2023-04-25T13:19:49;11.30;99.90
33837;DHT22;20140;49.356;8.812;2023-04-25T13:22:15;11.40;99.90
33837;DHT22;20140;49.356;8.812;2023-04-25T13:24:42;11.60;99.90
33837;DHT22;20140;49.356;8.812;2023-04-25T13:27:07;11.90;99.90
33837;DHT22;20140;49.356;8.812;2023-04-25T13:29:33;12.80;99.90
33837;DHT22;20140;49.356;8.812;2023-04-25T13:32:01;13.50;99.90
33837;DHT22;20140;49.356;8.812;2023-04-25T13:34:27;13.40;99.90
33837;DHT22;20140;49.356;8.812;2023-04-25T13:36:53;13.60;99.90
33837;DHT22;20140;49.356;8.812;2023-04-25T13:39:18;13.00;99.90
33837;DHT22;20140;49.356;8.812;2023-04-25T13:41:44;12.10;99.90
33837;DHT22;20140;49.356;8.812;2023-04-25T13:44:10;12.10;99.90
33837;DHT22;20140;49.356;8.812;2023-04-25T13:46:35;12.00;99.90
33837;DHT22;20140;49.356;8.812;2023-04-25T13:49:02;11.80;99.90
33837;DHT22;20140;49.356;8.812;2023-04-25T13:51:28;12.80;99.90
33837;DHT22;20140;49.356;8.812;2023-04-25T13:53:53;13.50;99.90
33837;DHT22;20140;49.356;8.812;2023-04-25T13:56:19;13.50;99.90
33837;DHT22;20140;49.356;8.812;2023-04-25T13:58:45;14.60;99.90
33837;DHT22;20140;49.356;8.812;2023-04-25T14:01:13;14.70;99.90
33837;DHT22;20140;49.356;8.812;2023-04-25T14:03:38;13.70;99.90
33837;DHT22;20140;49.356;8.812;2023-04-25T14:06:04;13.40;99.90
33837;DHT22;20140;49.356;8.812;2023-04-25T14:08:30;13.80;99.90
33837;DHT22;20140;49.356;8.812;2023-04-25T14:10:55;13.60;99.90
33837;DHT22;20140;49.356;8.812;2023-04-25T14:13:21;13.40;99.90
33837;DHT22;20140;49.356;8.812;2023-04-25T14:15:46;13.20;99.90
33837;DHT22;20140;49.356;8.812;2023-04-25T14:18:12;13.40;99.90
33837;DHT22;20140;49.356;8.812;2023-04-25T14:20:37;13.90;99.90
33837;DHT22;20140;49.356;8.812;2023-04-25T14:23:03;14.50;99.90
33837;DHT22;20140;49.356;8.812;2023-04-25T14:25:29;13.80;99.90
33837;DHT22;20140;49.356;8.812;2023-04-25T14:27:55;13.00;99.90
33837;DHT22;20140;49.356;8.812;2023-04-25T14:30:21;12.70;99.90
33837;DHT22;20140;49.356;8.812;2023-04-25T14:32:48;12.70;99.90
33837;DHT22;20140;49.356;8.812;2023-04-25T14:35:14;12.60;99.90
33837;DHT22;20140;49.356;8.812;2023-04-25T14:37:40;12.50;99.90
33837;DHT22;20140;49.356;8.812;2023-04-25T14:40:06;12.40;99.90
33837;DHT22;20140;49.356;8.812;2023-04-25T14:42:35;12.50;99.90
33837;DHT22;20140;49.356;8.812;2023-04-25T14:45:02;12.50;99.90
33837;DHT22;20140;49.356;8.812;2023-04-25T14:47:27;12.60;99.90
33837;DHT22;20140;49.356;8.812;2023-04-25T14:49:53;13.20;99.90
33837;DHT22;20140;49.356;8.812;2023-04-25T14:52:20;13.40;99.90
33837;DHT22;20140;49.356;8.812;2023-04-25T14:54:46;13.30;99.90
33837;DHT22;20140;49.356;8.812;2023-04-25T14:57:11;13.20;99.90
33837;DHT22;20140;49.356;8.812;2023-04-25T14:59:37;13.00;99.90
33837;DHT22;20140;49.356;8.812;2023-04-25T15:02:04;13.40;99.90
33837;DHT22;20140;49.356;8.812;2023-04-25T15:04:29;13.90;99.90
33837;DHT22;20140;49.356;8.812;2023-04-25T15:06:55;13.90;99.90
33837;DHT22;20140;49.356;8.812;2023-04-25T15:09:21;13.70;99.90
33837;DHT22;20140;49.356;8.812;2023-04-25T15:11:48;13.30;99.90
33837;DHT22;20140;49.356;8.812;2023-04-25T15:14:13;13.10;99.90
33837;DHT22;20140;49.356;8.812;2023-04-25T15:16:39;12.60;99.90
33837;DHT22;20140;49.356;8.812;2023-04-25T15:19:04;12.60;99.90
33837;DHT22;20140;49.356;8.812;2023-04-25T15:21:31;12.60;99.90
33837;DHT22;20140;49.356;8.812;2023-04-25T15:23:56;11.90;99.90
33837;DHT22;20140;49.356;8.812;2023-04-25T15:26:22;11.90;99.90
33837;DHT22;20140;49.356;8.812;2023-04-25T15:28:48;11.70;99.90
33837;DHT22;20140;49.356;8.812;2023-04-25T15:31:14;12.40;99.90
33837;DHT22;20140;49.356;8.812;2023-04-25T15:33:39;12.70;99.90
33837;DHT22;20140;49.356;8.812;2023-04-25T15:36:05;12.50;99.90
33837;DHT22;20140;49.356;8.812;2023-04-25T15:38:31;12.20;99.90
33837;DHT22;20140;49.356;8.812;2023-04-25T15:40:57;12.20;99.90
33837;DHT22;20140;49.356;8.812;2023-04-25T15:43:22;12.20;99.90